createdAt,value
2022-08-31T00:00:30.342Z,24.65
2022-08-31T00:03:54.453Z,24.68
2022-08-31T00:06:59.970Z,24.66
2022-08-31T00:10:05.727Z,24.54
2022-08-31T00:13:11.340Z,24.48
2022-08-31T00:16:18.073Z,24.45
2022-08-31T00:19:24.478Z,24.67
2022-08-31T00:22:30.099Z,24.54
2022-08-31T00:25:35.609Z,24.68
2022-08-31T00:28:40.575Z,24.55
2022-08-31T00:31:45.371Z,24.46
2022-08-31T00:34:50.434Z,24.29
2022-08-31T00:37:55.787Z,24.33
2022-08-31T00:41:01.451Z,24.26
2022-08-31T00:44:14.436Z,24.34
2022-08-31T00:47:20.566Z,24.72
2022-08-31T00:50:27.183Z,24.70
2022-08-31T00:53:33.338Z,24.38
2022-08-31T00:56:33.194Z,24.25
2022-08-31T00:59:40.040Z,24.40
2022-08-31T01:02:45.270Z,24.39
2022-08-31T01:05:51.502Z,24.29
2022-08-31T01:08:59.019Z,24.52
2022-08-31T01:12:03.639Z,24.36
2022-08-31T01:15:10.172Z,24.34
2022-08-31T01:18:17.885Z,24.20
2022-08-31T01:21:57.658Z,24.18
2022-08-31T01:25:03.682Z,24.19
2022-08-31T01:28:09.241Z,24.13
2022-08-31T01:31:20.429Z,24.34
2022-08-31T01:34:24.938Z,24.29
2022-08-31T01:37:30.302Z,24.30
2022-08-31T01:40:38.108Z,24.32
2022-08-31T01:43:44.956Z,24.42
2022-08-31T01:46:50.855Z,24.44
2022-08-31T01:49:57.863Z,24.74
2022-08-31T01:53:04.179Z,24.51
2022-08-31T01:56:09.973Z,24.49
2022-08-31T01:59:16.519Z,24.53
2022-08-31T02:02:32.962Z,24.78
2022-08-31T02:05:31.063Z,24.70
2022-08-31T02:08:37.187Z,24.68
2022-08-31T02:11:44.821Z,24.94
2022-08-31T02:14:50.748Z,25.00
2022-08-31T02:17:56.373Z,24.80
2022-08-31T02:21:01.886Z,24.91
2022-08-31T02:24:09.299Z,24.76
2022-08-31T02:27:16.135Z,25.10
2022-08-31T02:30:23.287Z,25.08
2022-08-31T02:33:31.448Z,25.13
2022-08-31T02:36:39.044Z,24.97
2022-08-31T02:39:45.669Z,25.09
2022-08-31T02:42:54.245Z,24.97
2022-08-31T02:46:00.310Z,25.02
2022-08-31T02:49:07.825Z,24.92
2022-08-31T02:52:14.700Z,24.97
2022-08-31T02:55:20.075Z,24.87
2022-08-31T02:58:27.137Z,24.83
2022-08-31T03:01:33.169Z,24.81
2022-08-31T03:04:38.082Z,24.93
2022-08-31T03:07:45.978Z,24.95
2022-08-31T03:10:51.786Z,24.94
2022-08-31T03:13:58.810Z,25.00
2022-08-31T03:17:05.192Z,24.94
2022-08-31T03:20:12.882Z,25.05
2022-08-31T03:23:22.658Z,25.01
2022-08-31T03:26:27.946Z,25.02
2022-08-31T03:29:33.516Z,25.35
2022-08-31T03:32:47.256Z,25.41
2022-08-31T03:35:52.653Z,25.35
2022-08-31T03:38:52.241Z,25.52
2022-08-31T03:41:45.028Z,25.93
2022-08-31T03:44:51.204Z,25.52
2022-08-31T03:48:00.737Z,25.90
2022-08-31T03:51:06.203Z,26.19
2022-08-31T03:54:13.734Z,25.88
2022-08-31T03:57:22.068Z,26.20
2022-08-31T04:00:28.773Z,26.31
2022-08-31T04:03:36.444Z,26.37
2022-08-31T04:07:01.321Z,26.34
2022-08-31T04:10:19.156Z,26.59
2022-08-31T04:13:43.682Z,26.87
2022-08-31T04:16:48.727Z,26.72
2022-08-31T04:19:56.689Z,26.84
2022-08-31T04:23:06.508Z,26.84
2022-08-31T04:26:14.223Z,26.93
2022-08-31T04:29:20.157Z,27.10
2022-08-31T04:32:28.217Z,26.91
2022-08-31T04:35:34.355Z,26.87
2022-08-31T04:38:39.726Z,27.00
2022-08-31T04:41:47.298Z,26.98
2022-08-31T04:44:53.070Z,27.40
2022-08-31T04:47:59.064Z,27.00
2022-08-31T04:51:03.688Z,27.11
2022-08-31T04:54:09.479Z,26.90
2022-08-31T04:57:15.085Z,26.79
2022-08-31T05:00:21.724Z,26.72
2022-08-31T05:03:35.957Z,26.84
2022-08-31T05:06:43.963Z,27.14
2022-08-31T05:09:50.431Z,26.68
2022-08-31T05:12:58.462Z,27.40
2022-08-31T05:16:05.092Z,27.38
2022-08-31T05:19:12.564Z,27.67
2022-08-31T05:22:19.550Z,27.75
2022-08-31T05:25:25.047Z,27.87
2022-08-31T05:28:30.277Z,28.15
2022-08-31T05:31:37.297Z,28.26
2022-08-31T05:34:42.745Z,28.77
2022-08-31T05:37:48.786Z,29.23
2022-08-31T05:40:56.669Z,29.27
2022-08-31T05:44:02.758Z,29.24
2022-08-31T05:47:10.222Z,27.99
2022-08-31T05:50:15.546Z,28.35
2022-08-31T05:53:21.036Z,28.45
2022-08-31T05:56:22.350Z,28.54
2022-08-31T05:59:27.878Z,28.63
2022-08-31T06:02:33.194Z,28.64
2022-08-31T06:05:40.591Z,28.73
2022-08-31T06:08:46.025Z,28.77
2022-08-31T06:11:51.302Z,29.13
2022-08-31T06:14:57.813Z,29.29
2022-08-31T06:18:04.844Z,29.25
2022-08-31T06:21:24.877Z,29.32
2022-08-31T06:24:31.578Z,29.21
2022-08-31T06:27:30.511Z,29.29
2022-08-31T06:30:54.414Z,29.53
2022-08-31T06:33:46.282Z,29.65
2022-08-31T06:36:55.384Z,29.56
2022-08-31T06:40:15.423Z,29.61
2022-08-31T06:43:40.658Z,29.78
2022-08-31T06:46:55.642Z,29.83
2022-08-31T06:50:03.547Z,29.84
2022-08-31T06:53:09.133Z,29.86
2022-08-31T06:56:24.471Z,29.99
2022-08-31T06:59:47.363Z,30.14
2022-08-31T07:03:12.236Z,30.15
2022-08-31T07:06:27.126Z,30.24
2022-08-31T07:09:33.544Z,30.29
2022-08-31T07:12:39.723Z,30.31
2022-08-31T07:15:45.677Z,30.48
2022-08-31T07:18:51.286Z,30.64
2022-08-31T07:22:11.442Z,30.33
2022-08-31T07:25:12.098Z,30.55
2022-08-31T07:28:19.878Z,30.56
2022-08-31T07:31:26.695Z,30.46
2022-08-31T07:34:38.484Z,30.55
2022-08-31T07:38:09.448Z,30.71
2022-08-31T07:41:32.289Z,30.51
2022-08-31T07:44:40.953Z,30.29
2022-08-31T07:47:51.889Z,29.99
2022-08-31T07:50:53.455Z,30.27
2022-08-31T07:53:55.629Z,30.32
2022-08-31T07:57:06.022Z,30.54
2022-08-31T08:00:13.973Z,30.63
2022-08-31T08:03:25.005Z,30.74
2022-08-31T08:06:55.640Z,30.20
2022-08-31T08:10:08.848Z,30.26
2022-08-31T08:13:19.687Z,30.32
2022-08-31T08:16:27.721Z,30.50
2022-08-31T08:19:43.990Z,30.73
2022-08-31T08:22:54.081Z,30.76
2022-08-31T08:26:03.064Z,30.53
2022-08-31T08:29:27.408Z,30.62
2022-08-31T08:32:34.589Z,30.56
2022-08-31T08:35:39.408Z,30.70
2022-08-31T08:38:45.654Z,30.96
2022-08-31T08:41:53.859Z,31.03
2022-08-31T08:44:59.996Z,31.06
2022-08-31T08:48:05.719Z,31.12
2022-08-31T08:51:14.272Z,31.17
2022-08-31T08:54:25.988Z,31.47
2022-08-31T08:57:28.498Z,31.74
2022-08-31T09:00:39.884Z,31.86
2022-08-31T09:04:06.177Z,31.71
2022-08-31T09:07:50.889Z,31.88
2022-08-31T09:10:58.905Z,31.93
2022-08-31T09:14:54.542Z,32.00
2022-08-31T09:18:08.518Z,32.33
2022-08-31T09:21:36.387Z,32.19
2022-08-31T09:24:42.680Z,31.98
2022-08-31T09:28:07.934Z,31.91
2022-08-31T09:31:13.451Z,32.07
2022-08-31T09:34:23.737Z,31.98
2022-08-31T09:37:40.149Z,32.33
2022-08-31T09:40:55.630Z,32.42
2022-08-31T09:44:01.690Z,31.62
2022-08-31T09:47:09.140Z,31.91
2022-08-31T09:50:15.626Z,32.23
2022-08-31T09:53:54.574Z,32.34
2022-08-31T09:57:09.716Z,32.18
2022-08-31T10:00:20.125Z,32.04
2022-08-31T10:03:35.987Z,32.25
2022-08-31T10:06:47.691Z,32.30
2022-08-31T10:10:01.111Z,32.38
2022-08-31T10:13:22.835Z,32.73
2022-08-31T10:16:50.283Z,32.73
2022-08-31T10:20:01.673Z,32.97
2022-08-31T10:23:13.670Z,32.90
2022-08-31T10:26:34.597Z,32.93
2022-08-31T10:29:53.298Z,33.04
2022-08-31T10:33:21.615Z,33.08
2022-08-31T10:36:27.443Z,33.19
2022-08-31T10:39:57.710Z,33.33
2022-08-31T10:43:13.521Z,33.49
2022-08-31T10:46:23.065Z,33.52
2022-08-31T10:49:30.610Z,32.74
2022-08-31T10:52:43.113Z,33.06
2022-08-31T10:56:13.805Z,33.10
2022-08-31T10:59:35.264Z,33.09
2022-08-31T11:03:16.472Z,32.90
2022-08-31T11:07:00.205Z,33.09
2022-08-31T11:10:44.185Z,33.20
2022-08-31T11:14:19.732Z,33.30
2022-08-31T11:17:59.119Z,33.07
2022-08-31T11:21:43.315Z,33.06
2022-08-31T11:25:16.202Z,32.76
2022-08-31T11:28:36.923Z,33.13
2022-08-31T11:31:43.855Z,33.39
2022-08-31T11:35:03.717Z,32.97
2022-08-31T11:38:10.430Z,32.98
2022-08-31T11:41:17.876Z,33.16
2022-08-31T11:44:25.771Z,33.16
2022-08-31T11:47:46.921Z,33.24
2022-08-31T11:51:21.437Z,33.34
2022-08-31T11:54:45.772Z,33.35
2022-08-31T11:58:20.910Z,33.76
2022-08-31T12:01:37.612Z,33.86
2022-08-31T12:05:04.927Z,33.97
2022-08-31T12:08:11.458Z,33.92
2022-08-31T12:11:27.728Z,33.94
2022-08-31T12:14:47.559Z,34.14
2022-08-31T12:18:31.595Z,34.14
2022-08-31T12:22:13.245Z,34.06
2022-08-31T12:25:33.439Z,33.95
2022-08-31T12:29:02.604Z,34.05
2022-08-31T12:32:45.027Z,34.03
2022-08-31T12:35:52.504Z,34.04
2022-08-31T12:38:58.572Z,34.13
2022-08-31T12:42:16.768Z,34.30
2022-08-31T12:45:23.123Z,34.14
2022-08-31T12:48:42.511Z,33.73
2022-08-31T12:52:26.207Z,33.71
2022-08-31T12:55:53.169Z,33.71
2022-08-31T12:59:10.944Z,33.81
2022-08-31T13:02:16.745Z,33.81
2022-08-31T13:05:40.149Z,33.68
2022-08-31T13:08:56.888Z,34.04
2022-08-31T13:12:05.103Z,34.03
2022-08-31T13:15:10.451Z,33.75
2022-08-31T13:18:19.996Z,33.81
2022-08-31T13:21:26.406Z,33.62
2022-08-31T13:24:37.781Z,33.76
2022-08-31T13:27:44.812Z,33.85
2022-08-31T13:30:55.404Z,33.88
2022-08-31T13:33:57.218Z,33.78
2022-08-31T13:37:07.229Z,33.68
2022-08-31T13:40:18.940Z,33.99
2022-08-31T13:43:26.507Z,34.08
2022-08-31T13:46:42.823Z,34.18
2022-08-31T13:49:46.422Z,34.12
2022-08-31T13:53:09.675Z,33.69
2022-08-31T13:55:58.661Z,33.59
2022-08-31T13:59:03.986Z,33.57
2022-08-31T14:02:16.779Z,33.49
2022-08-31T14:05:22.905Z,33.52
2022-08-31T14:08:32.991Z,33.31
2022-08-31T14:11:38.932Z,33.37
2022-08-31T14:14:46.573Z,33.32
2022-08-31T14:21:09.986Z,33.27
2022-08-31T14:23:51.021Z,33.05
2022-08-31T14:26:58.848Z,32.89
2022-08-31T14:30:06.814Z,32.49
2022-08-31T14:33:17.711Z,32.52
2022-08-31T14:36:23.837Z,32.45
2022-08-31T14:39:29.425Z,32.42
2022-08-31T14:42:45.010Z,32.27
2022-08-31T14:45:50.701Z,32.37
2022-08-31T14:48:56.110Z,32.17
2022-08-31T14:52:04.406Z,32.07
2022-08-31T14:55:09.314Z,32.07
2022-08-31T14:58:18.048Z,31.90
2022-08-31T15:01:24.475Z,31.82
2022-08-31T15:04:34.440Z,31.83
2022-08-31T15:07:42.004Z,31.65
2022-08-31T15:10:52.623Z,31.66
2022-08-31T15:14:01.564Z,31.78
2022-08-31T15:17:30.395Z,31.78
2022-08-31T15:20:36.396Z,31.73
2022-08-31T15:23:44.134Z,31.74
2022-08-31T15:26:44.349Z,31.83
2022-08-31T15:29:54.378Z,31.87
2022-08-31T15:33:02.470Z,31.66
2022-08-31T15:36:19.272Z,31.55
2022-08-31T15:39:25.811Z,31.58
2022-08-31T15:42:30.963Z,31.60
2022-08-31T15:45:37.933Z,31.45
2022-08-31T15:48:49.317Z,31.23
2022-08-31T15:52:00.538Z,30.95
2022-08-31T15:55:04.984Z,30.80
2022-08-31T15:58:11.619Z,30.90
2022-08-31T16:01:18.947Z,30.72
2022-08-31T16:04:26.682Z,30.70
2022-08-31T16:07:31.865Z,30.47
2022-08-31T16:10:37.828Z,30.36
2022-08-31T16:13:44.580Z,30.34
2022-08-31T16:16:52.828Z,30.27
2022-08-31T16:19:58.915Z,30.19
2022-08-31T16:23:05.061Z,30.18
2022-08-31T16:26:12.149Z,30.25
2022-08-31T16:29:21.081Z,30.12
2022-08-31T16:32:26.424Z,30.15
2022-08-31T16:35:32.758Z,30.14
2022-08-31T16:38:38.279Z,29.83
2022-08-31T16:41:43.793Z,29.57
2022-08-31T16:44:51.612Z,29.54
2022-08-31T16:47:59.311Z,29.52
2022-08-31T16:51:07.883Z,29.04
2022-08-31T16:54:16.154Z,29.16
2022-08-31T16:57:22.715Z,29.00
2022-08-31T17:00:32.195Z,28.70
2022-08-31T17:03:35.016Z,28.60
2022-08-31T17:06:44.309Z,28.60
2022-08-31T17:09:50.160Z,28.44
2022-08-31T17:12:56.384Z,28.30
2022-08-31T17:16:02.879Z,28.26
2022-08-31T17:19:11.225Z,28.49
2022-08-31T17:22:25.771Z,28.14
2022-08-31T17:25:26.383Z,28.24
2022-08-31T17:28:32.365Z,28.19
2022-08-31T17:31:38.286Z,27.97
2022-08-31T17:34:46.521Z,28.00
2022-08-31T17:37:53.150Z,28.12
2022-08-31T17:40:58.025Z,27.99
2022-08-31T17:44:03.934Z,27.92
2022-08-31T17:47:08.737Z,27.80
2022-08-31T17:50:13.604Z,28.14
2022-08-31T17:53:18.444Z,27.86
2022-08-31T17:56:25.158Z,27.74
2022-08-31T17:59:28.006Z,27.66
2022-08-31T18:02:39.695Z,27.61
2022-08-31T18:05:45.212Z,27.50
2022-08-31T18:08:51.660Z,27.46
2022-08-31T18:11:57.374Z,27.27
2022-08-31T18:15:05.449Z,27.25
2022-08-31T18:18:11.850Z,27.16
2022-08-31T18:21:25.464Z,26.69
2022-08-31T18:24:31.419Z,26.69
2022-08-31T18:27:37.855Z,26.45
2022-08-31T18:30:46.437Z,26.31
2022-08-31T18:33:46.858Z,26.57
2022-08-31T18:36:53.672Z,26.41
2022-08-31T18:40:17.727Z,26.19
2022-08-31T18:43:42.309Z,26.18
2022-08-31T18:46:47.785Z,26.31
2022-08-31T18:49:55.343Z,26.22
2022-08-31T18:53:01.764Z,26.07
2022-08-31T18:56:07.646Z,25.99
2022-08-31T18:59:14.129Z,25.99
2022-08-31T19:02:19.520Z,25.99
2022-08-31T19:05:26.986Z,25.99
2022-08-31T19:08:33.000Z,26.06
2022-08-31T19:11:40.869Z,25.89
2022-08-31T19:14:50.580Z,25.78
2022-08-31T19:17:56.177Z,25.80
2022-08-31T19:21:01.574Z,25.70
2022-08-31T19:24:07.383Z,25.54
2022-08-31T19:27:13.363Z,25.62
2022-08-31T19:30:24.596Z,25.45
2022-08-31T19:33:30.188Z,25.42
2022-08-31T19:36:37.547Z,25.51
2022-08-31T19:39:48.437Z,25.59
2022-08-31T19:43:42.962Z,25.79
2022-08-31T19:46:16.979Z,25.72
2022-08-31T19:49:09.390Z,25.57
2022-08-31T19:52:18.626Z,25.49
2022-08-31T19:55:25.585Z,25.47
2022-08-31T19:58:33.149Z,25.35
2022-08-31T20:01:43.790Z,25.13
2022-08-31T20:04:49.629Z,25.07
2022-08-31T20:07:57.194Z,25.10
2022-08-31T20:11:03.234Z,25.13
2022-08-31T20:14:08.950Z,25.15
2022-08-31T20:17:16.422Z,25.32
2022-08-31T20:20:23.280Z,25.23
2022-08-31T20:23:31.661Z,25.23
2022-08-31T20:26:47.104Z,25.29
2022-08-31T20:29:47.350Z,25.33
2022-08-31T20:32:54.134Z,25.20
2022-08-31T20:36:01.338Z,25.16
2022-08-31T20:39:10.836Z,25.23
2022-08-31T20:42:16.372Z,25.10
2022-08-31T20:45:23.180Z,25.07
2022-08-31T20:48:47.412Z,24.98
2022-08-31T20:51:53.076Z,25.11
2022-08-31T20:55:02.347Z,24.98
2022-08-31T20:58:06.173Z,25.07
2022-08-31T21:01:11.234Z,25.13
2022-08-31T21:04:15.862Z,25.34
2022-08-31T21:07:23.714Z,25.29
2022-08-31T21:10:36.964Z,25.17
2022-08-31T21:13:37.594Z,25.18
2022-08-31T21:16:43.424Z,25.16
2022-08-31T21:19:49.820Z,25.31
2022-08-31T21:22:56.290Z,25.47
2022-08-31T21:26:01.971Z,25.44
2022-08-31T21:29:08.525Z,25.30
2022-08-31T21:32:14.243Z,25.17
2022-08-31T21:35:18.916Z,25.28
2022-08-31T21:38:25.476Z,25.21
2022-08-31T21:41:33.284Z,25.26
2022-08-31T21:44:38.374Z,25.10
2022-08-31T21:47:45.007Z,25.13
2022-08-31T21:50:50.487Z,25.21
2022-08-31T21:53:55.725Z,25.21
2022-08-31T21:57:07.171Z,25.15
2022-08-31T22:00:15.979Z,24.86
2022-08-31T22:03:24.969Z,24.63
2022-08-31T22:06:33.465Z,24.37
2022-08-31T22:09:40.205Z,24.18
2022-08-31T22:12:46.096Z,24.04
2022-08-31T22:15:53.882Z,24.10
2022-08-31T22:19:06.885Z,23.98
2022-08-31T22:22:14.154Z,23.94
2022-08-31T22:25:20.616Z,23.99
2022-08-31T22:28:27.091Z,23.95
2022-08-31T22:31:35.011Z,24.13
2022-08-31T22:34:41.563Z,23.97
2022-08-31T22:37:47.679Z,23.97
2022-08-31T22:40:56.518Z,23.97
2022-08-31T22:44:03.869Z,23.97
2022-08-31T22:47:09.428Z,23.90
2022-08-31T22:50:07.772Z,24.02
2022-08-31T22:53:00.940Z,24.06
2022-08-31T22:56:06.037Z,24.00
2022-08-31T22:59:16.622Z,23.98
2022-08-31T23:02:21.244Z,24.03
2022-08-31T23:05:28.239Z,23.97
2022-08-31T23:08:35.126Z,23.84
2022-08-31T23:11:41.157Z,23.79
2022-08-31T23:14:48.879Z,23.79
2022-08-31T23:17:56.236Z,24.03
2022-08-31T23:21:02.943Z,23.96
2022-08-31T23:24:13.387Z,23.68
2022-08-31T23:27:15.111Z,23.61
2022-08-31T23:30:09.937Z,23.54
2022-08-31T23:33:15.443Z,23.56
2022-08-31T23:36:21.308Z,23.43
2022-08-31T23:39:27.094Z,23.74
2022-08-31T23:42:32.555Z,23.65
2022-08-31T23:45:40.411Z,23.44
2022-08-31T23:48:46.169Z,23.43
2022-08-31T23:51:51.453Z,23.39
2022-08-31T23:54:58.019Z,23.35
2022-08-31T23:58:05.552Z,23.51
